Time;durP1;ratioP1;P1;durP2;ratioP2;P2;SDS_P1;SDS_P2;PMS_P1;PMS_P2;Temp;Humidity;BMP_temperature;BMP_pressure;BME280_temperature;BME280_humidity;BME280_pressure;Samples;Min_cycle;Max_cycle;Signal;HPM_P1;HPM_P2
2023/06/21 00:00:58;;;;;;;27.30;24.42;;;23.90;74.10;;;;;;5031399;28;20039;-45
2023/06/21 00:07:24;;;;;;;27.08;24.27;;;23.90;74.00;;;;;;5031005;28;20484;-49
2023/06/21 00:09:50;;;;;;;27.02;24.38;;;23.90;73.90;;;;;;5033157;28;20401;-51
2023/06/21 00:12:16;;;;;;;27.05;24.40;;;23.90;74.40;;;;;;5029892;28;20030;-49
2023/06/21 00:14:41;;;;;;;26.73;23.85;;;23.90;74.20;;;;;;5014833;28;20033;-47
2023/06/21 00:17:07;;;;;;;27.88;25.08;;;23.90;73.90;;;;;;5015026;28;20504;-47
2023/06/21 00:19:33;;;;;;;26.95;24.15;;;23.90;73.80;;;;;;5014938;28;20026;-46
2023/06/21 00:21:59;;;;;;;27.50;23.55;;;23.90;73.90;;;;;;5014833;28;20046;-46
2023/06/21 00:24:25;;;;;;;26.80;23.77;;;23.90;73.80;;;;;;5014681;28;20037;-46
2023/06/21 00:26:51;;;;;;;26.20;23.58;;;23.90;73.70;;;;;;5014567;28;20030;-46
2023/06/21 00:29:17;;;;;;;24.17;21.73;;;23.90;73.70;;;;;;5030017;28;20163;-46
2023/06/21 00:31:42;;;;;;;25.25;22.65;;;23.90;73.70;;;;;;5014598;28;20113;-46
2023/06/21 00:34:08;;;;;;;26.15;23.58;;;23.90;73.90;;;;;;5029903;28;20041;-48
2023/06/21 00:36:36;;;;;;;25.63;23.02;;;23.90;73.80;;;;;;5014624;28;20036;-51
2023/06/21 00:39:02;;;;;;;26.30;23.60;;;23.90;73.70;;;;;;5029915;28;20061;-46
2023/06/21 00:41:29;;;;;;;25.13;22.65;;;23.90;73.70;;;;;;5014537;28;20508;-46
2023/06/21 00:43:54;;;;;;;25.40;22.90;;;23.90;73.50;;;;;;5029546;28;20101;-46
2023/06/21 00:46:21;;;;;;;27.50;22.10;;;23.90;73.80;;;;;;5029814;28;20401;-50
2023/06/21 00:48:47;;;;;;;23.40;20.90;;;23.90;73.60;;;;;;5014433;28;20058;-48
2023/06/21 00:51:13;;;;;;;24.27;21.80;;;23.90;73.40;;;;;;5014345;28;20088;-45
2023/06/21 00:53:40;;;;;;;25.98;23.35;;;23.90;73.50;;;;;;5029385;28;20061;-49
2023/06/21 00:56:06;;;;;;;24.88;22.33;;;23.90;73.40;;;;;;5014275;28;20405;-46
2023/06/21 00:58:33;;;;;;;25.70;22.98;;;23.90;73.30;;;;;;5014226;28;20500;-46
2023/06/21 01:01:00;;;;;;;24.67;22.05;;;23.90;73.30;;;;;;5012957;28;20037;-46
2023/06/21 01:03:26;;;;;;;25.58;22.98;;;23.90;73.30;;;;;;5013000;28;20042;-54
2023/06/21 01:06:14;;;;;;;24.05;21.45;;;23.90;73.20;;;;;;4996640;28;20057;-51
2023/06/21 01:08:52;;;;;;;26.90;21.75;;;23.90;73.40;;;;;;5013980;28;20033;-51
2023/06/21 01:11:37;;;;;;;24.38;21.08;;;23.80;73.10;;;;;;5014057;28;20108;-52
2023/06/21 01:14:21;;;;;;;24.15;21.45;;;23.80;73.10;;;;;;5013945;28;20405;-53
2023/06/21 01:16:50;;;;;;;23.95;21.45;;;23.80;73.20;;;;;;5029037;28;20026;-51
2023/06/21 01:19:37;;;;;;;24.95;22.40;;;23.90;73.10;;;;;;5013786;28;20030;-47
2023/06/21 01:22:15;;;;;;;23.05;20.65;;;23.80;73.10;;;;;;5029212;28;20030;-52
2023/06/21 01:24:55;;;;;;;23.55;21.05;;;23.80;73.00;;;;;;5013707;28;20034;-47
2023/06/21 01:27:41;;;;;;;23.92;21.52;;;23.80;73.00;;;;;;5013704;28;20477;-51
2023/06/21 01:30:09;;;;;;;24.73;21.95;;;23.80;72.90;;;;;;5013619;28;20157;-49
2023/06/21 01:32:37;;;;;;;23.02;20.63;;;23.80;73.00;;;;;;5013500;28;20036;-49
2023/06/21 01:35:04;;;;;;;23.70;21.08;;;23.80;72.90;;;;;;5013473;28;20030;-50
2023/06/21 01:37:32;;;;;;;22.90;20.17;;;23.80;73.40;;;;;;5028497;28;20405;-47
2023/06/21 01:39:59;;;;;;;23.63;21.23;;;23.80;72.90;;;;;;5028907;28;20030;-49
2023/06/21 01:42:26;;;;;;;23.13;20.42;;;23.80;72.90;;;;;;5012442;28;20030;-46
2023/06/21 01:44:52;;;;;;;23.02;20.63;;;23.80;72.80;;;;;;5013349;28;20033;-48
2023/06/21 01:47:20;;;;;;;22.33;19.92;;;23.80;72.80;;;;;;5013217;28;20030;-49
2023/06/21 01:49:46;;;;;;;22.33;20.08;;;23.80;72.70;;;;;;5013272;28;20037;-46
2023/06/21 01:52:13;;;;;;;21.75;19.45;;;23.80;72.70;;;;;;5013197;28;20037;-50
2023/06/21 01:54:41;;;;;;;23.25;20.73;;;23.80;72.70;;;;;;5028401;28;20141;-51
2023/06/21 01:57:10;;;;;;;25.00;19.63;;;23.80;72.80;;;;;;5011823;28;20025;-47
2023/06/21 01:59:36;;;;;;;21.83;19.50;;;23.80;73.30;;;;;;5011971;28;20115;-46
2023/06/21 02:02:05;;;;;;;22.98;19.70;;;23.80;72.50;;;;;;5028315;28;20053;-46
2023/06/21 02:04:33;;;;;;;22.75;20.30;;;23.80;72.60;;;;;;5012850;28;20397;-45
2023/06/21 02:07:00;;;;;;;22.25;19.88;;;23.80;72.60;;;;;;5012296;28;20033;-47
2023/06/21 02:09:27;;;;;;;20.88;18.23;;;23.90;72.70;;;;;;5012816;28;20507;-46
2023/06/21 02:11:53;;;;;;;22.63;20.33;;;23.90;72.60;;;;;;5012722;28;20026;-46
2023/06/21 02:14:20;;;;;;;22.27;19.88;;;23.80;72.50;;;;;;5027902;28;20037;-51
2023/06/21 02:16:46;;;;;;;21.10;18.90;;;23.90;72.60;;;;;;5012768;28;20018;-46
2023/06/21 02:19:12;;;;;;;21.70;19.40;;;23.90;72.50;;;;;;5012745;28;20022;-49
2023/06/21 02:21:38;;;;;;;21.33;19.08;;;23.90;72.50;;;;;;5012732;28;20386;-45
2023/06/21 02:24:05;;;;;;;22.60;19.00;;;23.80;72.50;;;;;;5012611;28;20061;-45
2023/06/21 02:26:31;;;;;;;21.02;18.83;;;23.80;72.50;;;;;;5012627;28;20053;-45
2023/06/21 02:28:57;;;;;;;21.17;19.02;;;23.80;72.40;;;;;;5012449;28;20493;-45
2023/06/21 02:31:23;;;;;;;20.58;18.42;;;23.80;72.40;;;;;;5011705;28;20565;-45
2023/06/21 02:33:49;;;;;;;21.30;19.10;;;23.80;72.50;;;;;;5012234;28;20069;-46
2023/06/21 02:36:16;;;;;;;21.17;18.92;;;23.80;72.40;;;;;;5013152;28;20030;-47
2023/06/21 02:38:41;;;;;;;21.95;19.65;;;23.80;72.50;;;;;;5012373;28;20033;-47
2023/06/21 02:41:07;;;;;;;21.88;19.45;;;23.80;72.50;;;;;;5012338;28;20034;-46
2023/06/21 02:43:33;;;;;;;23.55;19.45;;;23.80;72.50;;;;;;5012327;28;20068;-46
2023/06/21 02:46:02;;;;;;;22.27;20.08;;;23.80;72.70;;;;;;5027562;28;20088;-46
2023/06/21 02:48:28;;;;;;;21.73;18.65;;;23.80;72.50;;;;;;5012252;28;20030;-49
2023/06/21 02:50:54;;;;;;;20.08;17.83;;;23.80;72.60;;;;;;5027453;28;20385;-46
2023/06/21 02:53:20;;;;;;;21.40;19.05;;;23.80;72.60;;;;;;5012168;28;20063;-47
2023/06/21 02:55:45;;;;;;;20.90;18.70;;;23.80;72.50;;;;;;5012007;28;20068;-48
2023/06/21 02:58:12;;;;;;;21.05;18.75;;;23.80;72.60;;;;;;5012130;28;20105;-46
2023/06/21 03:00:40;;;;;;;19.92;17.77;;;23.80;73.20;;;;;;5027380;28;20144;-49
2023/06/21 03:03:06;;;;;;;21.02;18.83;;;23.80;72.60;;;;;;5027066;28;20037;-48
2023/06/21 03:05:35;;;;;;;21.40;18.60;;;23.80;72.50;;;;;;5012260;28;20030;-49
2023/06/21 03:08:06;;;;;;;20.65;18.55;;;23.80;72.50;;;;;;5011947;28;20038;-48
2023/06/21 03:10:32;;;;;;;20.80;18.60;;;23.80;72.60;;;;;;5010837;28;20080;-48
2023/06/21 03:12:59;;;;;;;21.20;19.00;;;23.80;72.60;;;;;;5010934;28;20026;-46
2023/06/21 03:15:25;;;;;;;21.10;18.25;;;23.80;72.60;;;;;;5027516;28;20057;-52
2023/06/21 03:17:51;;;;;;;22.33;19.27;;;23.80;72.60;;;;;;5011984;28;20026;-52
2023/06/21 03:20:17;;;;;;;20.58;18.38;;;23.80;72.60;;;;;;5011842;28;20026;-48
2023/06/21 03:22:44;;;;;;;20.80;18.45;;;23.80;72.60;;;;;;5027044;28;20486;-46
2023/06/21 03:25:12;;;;;;;21.83;18.55;;;23.80;72.60;;;;;;5010514;28;20129;-48
2023/06/21 03:27:40;;;;;;;29.02;18.58;;;23.80;72.60;;;;;;5027181;28;20519;-45
2023/06/21 03:30:10;;;;;;;20.67;17.98;;;23.80;72.70;;;;;;5027091;28;20026;-49
2023/06/21 03:32:37;;;;;;;21.77;19.27;;;23.80;72.60;;;;;;5026948;28;20030;-48
2023/06/21 03:35:04;;;;;;;20.95;18.10;;;23.80;72.60;;;;;;5026883;28;20489;-46
2023/06/21 03:37:29;;;;;;;22.17;19.88;;;23.80;72.60;;;;;;5011502;28;20048;-46
2023/06/21 03:39:56;;;;;;;20.60;18.50;;;23.80;72.60;;;;;;5010536;28;20026;-45
2023/06/21 03:42:22;;;;;;;20.45;18.25;;;23.80;72.50;;;;;;5011611;28;20026;-46
2023/06/21 03:44:48;;;;;;;20.23;18.05;;;23.80;72.60;;;;;;5030588;28;20034;-47
2023/06/21 03:47:14;;;;;;;20.27;18.08;;;23.80;72.50;;;;;;5030835;28;20037;-47
2023/06/21 03:49:41;;;;;;;22.65;18.20;;;23.80;72.50;;;;;;5014462;28;20385;-46
2023/06/21 03:52:08;;;;;;;20.80;18.60;;;23.80;72.50;;;;;;5015320;28;20037;-45
2023/06/21 03:54:34;;;;;;;19.98;17.88;;;23.80;72.50;;;;;;5014104;28;20029;-52
2023/06/21 03:57:00;;;;;;;20.55;18.33;;;23.80;72.40;;;;;;5015372;28;20033;-52
2023/06/21 03:59:26;;;;;;;20.45;17.88;;;23.80;72.40;;;;;;5015309;28;20382;-48
2023/06/21 04:01:51;;;;;;;20.63;18.40;;;23.80;72.40;;;;;;5015266;28;20061;-46
2023/06/21 04:04:17;;;;;;;20.10;18.00;;;23.80;72.50;;;;;;5042041;23;20050;-52
2023/06/21 04:06:43;;;;;;;20.52;18.35;;;23.80;72.30;;;;;;5015229;28;20025;-49
2023/06/21 04:09:09;;;;;;;21.20;17.55;;;23.80;72.50;;;;;;4998749;28;20030;-50
2023/06/21 04:11:35;;;;;;;19.45;17.35;;;23.80;72.50;;;;;;5015810;28;20038;-51
2023/06/21 04:14:00;;;;;;;20.13;17.98;;;23.80;72.50;;;;;;4997865;28;20030;-49
2023/06/21 04:16:26;;;;;;;19.75;17.65;;;23.80;72.40;;;;;;4998315;28;20025;-52
2023/06/21 04:18:52;;;;;;;19.77;17.67;;;23.80;72.50;;;;;;4997932;28;20105;-52
2023/06/21 04:21:18;;;;;;;20.50;18.30;;;23.80;72.50;;;;;;5015456;28;20465;-53
2023/06/21 04:23:44;;;;;;;19.50;17.17;;;23.80;72.50;;;;;;4997201;28;20037;-55
2023/06/21 04:26:12;;;;;;;19.23;17.23;;;23.80;72.50;;;;;;4980951;28;20117;-55
2023/06/21 04:28:41;;;;;;;19.20;17.02;;;23.80;72.50;;;;;;4997219;28;20030;-55
2023/06/21 04:31:07;;;;;;;19.08;16.92;;;23.80;72.50;;;;;;4997313;28;20084;-55
2023/06/21 04:33:34;;;;;;;19.40;17.13;;;23.80;72.40;;;;;;5014656;28;20402;-55
2023/06/21 04:36:00;;;;;;;20.13;18.02;;;23.80;72.40;;;;;;5014546;28;20025;-54
2023/06/21 04:38:25;;;;;;;20.27;18.20;;;23.80;72.50;;;;;;5014396;28;20026;-54
2023/06/21 04:40:54;;;;;;;19.33;17.30;;;23.80;72.60;;;;;;5014617;28;20036;-55
2023/06/21 04:43:24;;;;;;;20.00;17.90;;;23.80;72.60;;;;;;5014450;28;20508;-55
2023/06/21 04:45:51;;;;;;;19.88;17.83;;;23.80;72.70;;;;;;5014455;28;20068;-54
2023/06/21 04:48:17;;;;;;;19.85;17.80;;;23.80;72.60;;;;;;5014392;28;20112;-55
2023/06/21 04:50:45;;;;;;;19.38;16.75;;;23.80;72.60;;;;;;5014543;28;20525;-53
2023/06/21 04:53:14;;;;;;;19.33;17.33;;;23.80;72.50;;;;;;5014177;28;20034;-55
2023/06/21 04:55:44;;;;;;;22.02;18.13;;;23.80;72.50;;;;;;5013425;28;20018;-54
2023/06/21 04:58:12;;;;;;;20.13;17.80;;;23.80;72.50;;;;;;5014177;28;20022;-54
2023/06/21 05:00:38;;;;;;;18.52;16.58;;;23.80;72.50;;;;;;5014245;28;20041;-54
2023/06/21 05:03:04;;;;;;;19.20;17.20;;;23.80;72.50;;;;;;5013917;28;20034;-54
2023/06/21 05:05:30;;;;;;;19.55;17.30;;;23.80;72.50;;;;;;5014023;28;20164;-55
2023/06/21 05:07:56;;;;;;;20.70;18.58;;;23.80;72.60;;;;;;5013950;28;20041;-53
2023/06/21 05:10:22;;;;;;;19.50;17.48;;;23.80;72.50;;;;;;5013966;28;20088;-54
2023/06/21 05:12:47;;;;;;;20.33;18.23;;;23.80;72.60;;;;;;5014000;28;20461;-52
2023/06/21 05:15:13;;;;;;;20.52;18.42;;;23.80;72.60;;;;;;5013875;28;20036;-54
2023/06/21 05:17:39;;;;;;;20.05;18.05;;;23.80;72.50;;;;;;5013820;28;20021;-54
2023/06/21 05:20:06;;;;;;;20.15;18.05;;;23.90;72.50;;;;;;5013799;28;20018;-55
2023/06/21 05:22:32;;;;;;;20.17;18.00;;;23.80;72.40;;;;;;5013831;28;20505;-53
2023/06/21 05:25:00;;;;;;;19.98;17.75;;;23.80;72.40;;;;;;5013620;28;20555;-55
2023/06/21 05:27:26;;;;;;;19.73;17.73;;;23.80;72.50;;;;;;5013596;28;20052;-55
2023/06/21 05:29:52;;;;;;;19.63;17.45;;;23.80;72.30;;;;;;5013656;28;20314;-54
2023/06/21 05:32:17;;;;;;;19.55;17.55;;;23.80;72.20;;;;;;5013642;28;20033;-55
2023/06/21 05:34:43;;;;;;;18.75;16.67;;;23.80;72.20;;;;;;4995841;28;20394;-52
2023/06/21 05:37:09;;;;;;;19.60;17.55;;;23.80;72.20;;;;;;5013667;28;20022;-54
2023/06/21 05:39:35;;;;;;;19.25;17.23;;;23.90;72.30;;;;;;5013172;28;20172;-52
2023/06/21 05:42:00;;;;;;;20.35;18.23;;;23.80;72.20;;;;;;5013452;28;20033;-55
2023/06/21 05:44:26;;;;;;;19.25;17.25;;;23.90;72.30;;;;;;5013192;28;20053;-55
2023/06/21 05:46:52;;;;;;;20.08;17.67;;;23.90;72.20;;;;;;5013117;28;20036;-54
2023/06/21 05:49:18;;;;;;;22.38;18.02;;;23.90;72.20;;;;;;5013243;28;20033;-54
2023/06/21 05:51:44;;;;;;;19.70;17.60;;;23.80;72.20;;;;;;5013168;28;20026;-54
2023/06/21 05:54:09;;;;;;;20.52;17.42;;;23.80;72.20;;;;;;5013036;28;20114;-55
2023/06/21 05:56:37;;;;;;;18.10;15.50;;;23.80;72.30;;;;;;5013413;28;20052;-55
2023/06/21 05:59:04;;;;;;;20.15;16.83;;;23.80;72.10;;;;;;5013112;28;20084;-55
2023/06/21 06:01:30;;;;;;;19.85;17.75;;;23.80;72.10;;;;;;5013075;28;20105;-54
2023/06/21 06:03:56;;;;;;;18.58;16.55;;;23.80;72.30;;;;;;5012682;28;20136;-55
2023/06/21 06:06:21;;;;;;;22.20;17.88;;;23.80;72.20;;;;;;5012935;28;20553;-52
2023/06/21 06:08:47;;;;;;;20.50;17.55;;;23.80;72.20;;;;;;5012799;28;20026;-55
2023/06/21 06:11:13;;;;;;;19.23;17.08;;;23.90;72.30;;;;;;5012722;28;20034;-55
2023/06/21 06:13:39;;;;;;;20.52;18.42;;;23.80;72.10;;;;;;5012829;28;20101;-50
2023/06/21 06:16:05;;;;;;;18.60;16.52;;;23.80;72.30;;;;;;5012827;28;20515;-50
2023/06/21 06:18:31;;;;;;;20.13;17.40;;;23.80;72.20;;;;;;5012637;28;20028;-54
2023/06/21 06:20:56;;;;;;;18.95;17.05;;;23.80;72.10;;;;;;5012759;28;20030;-53
2023/06/21 06:23:22;;;;;;;17.98;16.08;;;23.80;72.20;;;;;;5012592;28;20033;-53
2023/06/21 06:25:48;;;;;;;19.23;16.95;;;23.80;72.00;;;;;;5012500;28;20033;-55
2023/06/21 06:28:14;;;;;;;19.23;17.25;;;23.80;72.00;;;;;;5012494;28;20489;-53
2023/06/21 06:30:39;;;;;;;18.83;16.75;;;23.80;72.20;;;;;;5012441;28;20025;-49
2023/06/21 06:33:05;;;;;;;20.02;16.83;;;23.80;72.20;;;;;;5012586;28;20165;-54
2023/06/21 06:35:32;;;;;;;18.73;16.70;;;23.80;72.00;;;;;;5012364;28;20037;-54
2023/06/21 06:37:58;;;;;;;19.27;17.27;;;23.80;72.10;;;;;;4994814;28;20038;-55
2023/06/21 06:40:23;;;;;;;18.92;16.92;;;23.80;72.00;;;;;;4994963;28;20382;-53
2023/06/21 06:42:49;;;;;;;18.65;15.88;;;23.90;72.10;;;;;;5012410;28;20578;-54
2023/06/21 06:45:15;;;;;;;21.00;16.65;;;23.90;72.10;;;;;;5012215;28;20053;-53
2023/06/21 06:47:41;;;;;;;18.67;16.60;;;23.90;72.10;;;;;;5012245;28;20022;-54
2023/06/21 06:50:07;;;;;;;18.92;16.92;;;23.90;71.90;;;;;;5012437;28;20060;-52
2023/06/21 06:52:33;;;;;;;18.10;16.17;;;23.90;72.20;;;;;;5012236;28;20504;-54
2023/06/21 06:54:58;;;;;;;20.25;17.15;;;23.90;72.10;;;;;;5012294;28;20018;-48
2023/06/21 06:57:24;;;;;;;18.52;16.55;;;23.90;72.20;;;;;;5012208;28;20088;-55
2023/06/21 06:59:50;;;;;;;18.20;16.30;;;23.90;72.00;;;;;;5012244;28;20030;-53
2023/06/21 07:02:16;;;;;;;18.75;16.67;;;23.90;72.30;;;;;;5012163;28;20076;-49
2023/06/21 07:04:41;;;;;;;19.00;16.95;;;23.90;72.30;;;;;;5011767;28;20034;-55
2023/06/21 07:07:07;;;;;;;18.80;16.90;;;24.00;72.50;;;;;;5022833;28;20562;-54
2023/06/21 07:09:33;;;;;;;21.67;18.60;;;24.00;72.60;;;;;;5036238;28;20025;-53
2023/06/21 07:12:01;;;;;;;21.10;18.75;;;24.00;73.50;;;;;;5030346;28;20060;-53
2023/06/21 07:14:27;;;;;;;23.38;20.55;;;24.00;73.80;;;;;;5014558;28;20040;-53
2023/06/21 07:16:53;;;;;;;25.20;19.00;;;24.00;74.20;;;;;;4982232;28;20033;-54
2023/06/21 07:19:19;;;;;;;26.48;22.55;;;24.00;74.70;;;;;;5035538;28;20025;-54
2023/06/21 07:21:45;;;;;;;28.40;25.63;;;24.10;75.40;;;;;;5032508;28;20053;-55
2023/06/21 07:24:12;;;;;;;31.25;24.65;;;24.10;76.10;;;;;;5033073;28;20032;-55
2023/06/21 07:26:41;;;;;;;31.40;24.35;;;24.10;76.20;;;;;;5005716;28;20083;-55
2023/06/21 07:29:06;;;;;;;30.60;25.10;;;24.20;75.80;;;;;;5034329;28;20032;-51
2023/06/21 07:31:32;;;;;;;31.05;23.45;;;24.20;76.20;;;;;;5035113;28;20037;-51
2023/06/21 07:34:00;;;;;;;23.48;20.95;;;24.20;74.90;;;;;;5035086;28;20029;-54
2023/06/21 07:36:26;;;;;;;29.77;21.73;;;24.20;74.60;;;;;;5015897;28;20021;-54
2023/06/21 07:38:52;;;;;;;25.35;20.85;;;24.20;74.50;;;;;;5029308;28;20107;-55
2023/06/21 07:41:18;;;;;;;24.05;21.45;;;24.20;75.20;;;;;;5032918;28;20041;-53
2023/06/21 07:43:44;;;;;;;30.60;21.00;;;24.20;75.50;;;;;;5011185;28;20026;-54
2023/06/21 07:46:10;;;;;;;23.35;19.27;;;24.20;75.60;;;;;;5024754;28;20052;-49
2023/06/21 07:48:38;;;;;;;23.33;20.48;;;24.20;76.00;;;;;;5035255;28;20029;-54
2023/06/21 07:51:03;;;;;;;30.40;19.50;;;24.20;75.90;;;;;;5026577;28;20063;-52
2023/06/21 07:53:30;;;;;;;21.67;19.33;;;24.20;75.90;;;;;;5020587;28;20584;-55
2023/06/21 07:55:56;;;;;;;24.33;18.60;;;24.20;76.00;;;;;;5034793;28;20026;-54
2023/06/21 07:58:22;;;;;;;23.17;19.60;;;24.20;75.80;;;;;;5034906;28;20022;-52
2023/06/21 08:00:48;;;;;;;21.92;19.27;;;24.30;75.30;;;;;;5034717;28;20087;-54
2023/06/21 08:03:14;;;;;;;22.15;18.55;;;24.30;75.50;;;;;;5032739;28;20036;-54
2023/06/21 08:05:40;;;;;;;25.30;18.05;;;24.20;75.70;;;;;;5030912;28;20481;-55
2023/06/21 08:08:06;;;;;;;24.92;17.40;;;24.30;75.60;;;;;;5033907;28;20031;-53
2023/06/21 08:10:32;;;;;;;23.15;17.75;;;24.30;76.00;;;;;;5035726;28;20079;-55
2023/06/21 08:12:58;;;;;;;23.90;16.90;;;24.30;76.00;;;;;;5035329;28;20018;-55
2023/06/21 08:15:24;;;;;;;19.92;17.10;;;24.30;75.90;;;;;;5034821;28;20362;-55
2023/06/21 08:17:49;;;;;;;22.33;16.17;;;24.30;76.00;;;;;;5030665;28;20036;-53
2023/06/21 08:20:16;;;;;;;21.38;16.55;;;24.30;76.10;;;;;;5033367;28;20059;-54
2023/06/21 08:22:42;;;;;;;22.25;17.08;;;24.40;76.00;;;;;;5034902;28;20485;-55
2023/06/21 08:25:08;;;;;;;21.40;16.77;;;24.40;75.80;;;;;;5017536;28;20032;-49
2023/06/21 08:27:34;;;;;;;18.88;16.30;;;24.40;76.50;;;;;;5027933;28;20021;-54
2023/06/21 08:29:59;;;;;;;18.65;16.20;;;24.40;76.40;;;;;;5028419;28;20029;-51
2023/06/21 08:32:25;;;;;;;18.08;15.85;;;24.40;76.20;;;;;;5039566;28;20389;-55
2023/06/21 08:34:54;;;;;;;17.77;15.85;;;24.50;76.10;;;;;;5041745;28;20032;-55
2023/06/21 08:37:25;;;;;;;19.08;16.13;;;24.50;76.60;;;;;;5037216;28;20488;-55
2023/06/21 08:39:55;;;;;;;19.85;16.10;;;24.50;77.00;;;;;;5032437;28;20498;-56
2023/06/21 08:42:23;;;;;;;18.65;16.23;;;24.50;77.30;;;;;;5037611;28;20067;-56
2023/06/21 08:44:50;;;;;;;20.40;16.25;;;24.50;77.20;;;;;;5032791;28;20025;-56
2023/06/21 08:47:17;;;;;;;20.75;15.57;;;24.50;77.10;;;;;;5038298;28;20091;-55
2023/06/21 08:49:47;;;;;;;18.50;15.55;;;24.50;77.40;;;;;;5039286;28;20028;-49
2023/06/21 08:52:20;;;;;;;18.00;15.23;;;24.50;77.10;;;;;;5036215;28;20484;-55
2023/06/21 08:55:02;;;;;;;19.35;15.90;;;24.40;76.80;;;;;;5040889;28;20381;-48
2023/06/21 08:57:32;;;;;;;18.38;14.93;;;24.50;76.60;;;;;;5036816;28;20025;-53
2023/06/21 09:00:03;;;;;;;17.50;14.68;;;24.50;76.40;;;;;;5039555;28;20464;-53
2023/06/21 09:02:52;;;;;;;19.80;13.93;;;24.50;76.20;;;;;;5038910;28;20511;-55
2023/06/21 09:05:33;;;;;;;18.77;14.25;;;24.50;76.10;;;;;;5033240;28;20496;-55
2023/06/21 09:08:01;;;;;;;17.70;13.48;;;24.50;76.10;;;;;;5042121;28;20093;-51
2023/06/21 09:10:28;;;;;;;19.23;13.90;;;24.50;76.10;;;;;;5042272;28;20013;-55
2023/06/21 09:12:59;;;;;;;17.73;13.30;;;24.50;76.10;;;;;;5033405;28;20030;-55
2023/06/21 09:15:25;;;;;;;21.05;13.73;;;24.50;75.80;;;;;;5038956;28;20113;-53
2023/06/21 09:17:54;;;;;;;20.65;12.88;;;24.50;75.80;;;;;;5040938;28;20412;-52
2023/06/21 09:20:27;;;;;;;16.40;12.68;;;24.50;75.70;;;;;;5041665;28;20063;-53
2023/06/21 09:22:54;;;;;;;19.98;12.15;;;24.50;75.70;;;;;;5034847;28;20018;-55
2023/06/21 09:25:20;;;;;;;18.27;11.73;;;24.50;75.90;;;;;;5037504;28;20032;-55
2023/06/21 09:27:46;;;;;;;22.23;11.73;;;24.60;76.10;;;;;;5033481;28;20014;-54
2023/06/21 09:30:13;;;;;;;15.25;11.80;;;24.50;76.00;;;;;;5042393;28;20070;-53
2023/06/21 09:32:39;;;;;;;15.73;11.95;;;24.50;76.00;;;;;;5036467;28;20056;-54
2023/06/21 09:35:05;;;;;;;18.02;12.27;;;24.50;76.20;;;;;;5038401;28;20580;-56
2023/06/21 09:37:31;;;;;;;17.40;11.45;;;24.50;76.10;;;;;;5037729;28;20026;-54
2023/06/21 09:39:57;;;;;;;15.15;11.75;;;24.50;76.10;;;;;;5007555;28;20029;-53
2023/06/21 09:42:25;;;;;;;16.85;11.15;;;24.50;76.10;;;;;;5037116;28;20033;-56
2023/06/21 09:44:52;;;;;;;13.70;11.02;;;24.60;76.30;;;;;;5036700;28;20488;-56
2023/06/21 09:47:18;;;;;;;14.73;11.50;;;24.60;76.20;;;;;;5037682;28;20029;-56
2023/06/21 09:49:48;;;;;;;14.32;10.73;;;24.60;76.10;;;;;;5039240;28;20041;-53
2023/06/21 09:52:15;;;;;;;15.63;11.65;;;24.60;75.90;;;;;;5041215;28;20286;-55
2023/06/21 09:54:44;;;;;;;15.93;11.50;;;24.60;76.00;;;;;;5020167;28;20071;-56
2023/06/21 09:57:10;;;;;;;15.15;11.93;;;24.60;76.30;;;;;;5038231;28;20049;-54
2023/06/21 09:59:37;;;;;;;16.55;11.57;;;24.60;76.60;;;;;;5038074;28;20033;-52
2023/06/21 10:02:07;;;;;;;14.13;10.90;;;24.70;76.70;;;;;;5023894;28;20395;-53
2023/06/21 10:04:43;;;;;;;;;;;24.70;76.40;;;;;;5038704;28;20029;-53
2023/06/21 10:07:12;;;;;;;13.25;10.48;;;24.70;76.00;;;;;;5030631;28;19917;-48
2023/06/21 10:09:38;;;;;;;;;;;24.70;76.10;;;;;;5038542;28;20029;-52
2023/06/21 10:12:05;;;;;;;14.73;11.38;;;24.70;75.90;;;;;;5040964;28;20359;-52
2023/06/21 10:14:32;;;;;;;15.18;10.93;;;24.70;75.80;;;;;;5038987;28;20071;-49
2023/06/21 10:16:58;;;;;;;15.70;10.93;;;24.70;75.80;;;;;;5032814;28;20025;-53
2023/06/21 10:19:26;;;;;;;16.50;11.10;;;24.70;75.50;;;;;;5039478;28;20021;-54
2023/06/21 10:22:08;;;;;;;15.20;10.90;;;24.70;75.50;;;;;;5038664;28;20029;-53
2023/06/21 10:24:50;;;;;;;14.38;11.18;;;24.70;75.60;;;;;;5037304;28;20037;-52
2023/06/21 10:27:18;;;;;;;14.23;10.88;;;24.70;75.70;;;;;;5031352;28;20022;-56
2023/06/21 10:29:48;;;;;;;13.75;11.32;;;24.70;75.50;;;;;;5038253;28;20029;-55
2023/06/21 10:32:15;;;;;;;20.30;11.35;;;24.70;76.10;;;;;;5040785;28;20112;-54
2023/06/21 10:34:48;;;;;;;30.05;11.30;;;24.60;76.40;;;;;;5038807;28;20017;-52
2023/06/21 10:37:53;;;;;;;19.05;10.32;;;24.60;77.20;;;;;;5036810;28;20025;-56
2023/06/21 10:40:19;;;;;;;14.15;10.25;;;24.60;77.20;;;;;;5028959;28;20041;-54
2023/06/21 10:42:46;;;;;;;14.35;10.45;;;24.60;76.60;;;;;;5038235;28;20028;-54
2023/06/21 10:45:12;;;;;;;16.45;10.57;;;24.60;76.40;;;;;;5040616;28;20031;-55
2023/06/21 10:47:39;;;;;;;16.00;10.50;;;24.60;76.20;;;;;;5039570;28;20033;-55
2023/06/21 10:50:07;;;;;;;19.13;10.25;;;24.60;76.30;;;;;;5037060;28;20034;-54
2023/06/21 10:52:35;;;;;;;14.40;9.88;;;24.60;76.40;;;;;;5036136;28;20072;-56
2023/06/21 10:55:02;;;;;;;15.63;10.60;;;24.60;76.50;;;;;;5036595;28;20258;-54
2023/06/21 10:57:30;;;;;;;14.32;10.57;;;24.60;75.70;;;;;;5036617;28;20429;-54
2023/06/21 11:00:07;;;;;;;13.52;10.40;;;24.60;76.50;;;;;;5031930;28;20103;-52
2023/06/21 11:02:34;;;;;;;12.55;9.73;;;24.60;75.70;;;;;;5040406;28;20036;-51
2023/06/21 11:05:19;;;;;;;15.20;9.10;;;24.60;76.00;;;;;;5032552;28;20131;-52
2023/06/21 11:07:47;;;;;;;15.27;9.35;;;24.60;74.70;;;;;;5038511;28;20021;-51
2023/06/21 11:10:13;;;;;;;13.57;8.93;;;24.60;74.90;;;;;;5036607;28;20053;-52
2023/06/21 11:12:39;;;;;;;14.18;9.68;;;24.60;74.60;;;;;;5036849;28;20029;-50
2023/06/21 11:15:06;;;;;;;13.82;9.05;;;24.70;75.20;;;;;;5032574;28;20091;-50
2023/06/21 11:17:35;;;;;;;15.98;10.25;;;24.70;75.80;;;;;;5021801;28;20414;-52
2023/06/21 11:20:22;;;;;;;17.50;10.27;;;24.70;76.50;;;;;;5034534;28;20030;-51
2023/06/21 11:22:59;;;;;;;15.40;9.60;;;24.60;76.50;;;;;;5038048;28;20052;-53
2023/06/21 11:25:27;;;;;;;11.57;8.68;;;24.60;75.90;;;;;;5035109;28;20114;-53
2023/06/21 11:28:25;;;;;;;14.48;9.05;;;24.60;75.70;;;;;;5037018;28;20025;-50
2023/06/21 11:31:16;;;;;;;23.95;8.80;;;24.60;76.10;;;;;;5038410;28;20109;-54
2023/06/21 11:33:52;;;;;;;11.80;8.70;;;24.60;76.00;;;;;;5032272;28;20433;-50
2023/06/21 11:36:24;;;;;;;12.63;8.63;;;24.50;75.60;;;;;;5036393;28;20108;-48
2023/06/21 11:38:59;;;;;;;11.38;8.75;;;24.50;75.50;;;;;;5038069;28;20025;-50
2023/06/21 11:41:43;;;;;;;12.68;8.65;;;24.50;75.50;;;;;;5039797;28;20024;-49
2023/06/21 11:44:12;;;;;;;12.40;8.77;;;24.50;75.60;;;;;;5023951;28;20056;-53
2023/06/21 11:46:45;;;;;;;9.98;7.43;;;24.50;75.60;;;;;;5036416;28;20091;-50
2023/06/21 11:49:11;;;;;;;13.35;8.77;;;24.50;75.20;;;;;;5021616;28;20040;-50
2023/06/21 11:51:52;;;;;;;12.98;8.65;;;24.50;75.20;;;;;;5039067;28;20417;-50
2023/06/21 11:54:37;;;;;;;10.63;8.65;;;24.50;75.20;;;;;;5031340;28;20083;-49
2023/06/21 11:57:07;;;;;;;14.43;8.75;;;24.50;75.10;;;;;;5024082;28;20045;-52
2023/06/21 11:59:34;;;;;;;13.77;8.27;;;24.50;75.00;;;;;;5039118;28;20508;-47
2023/06/21 12:02:20;;;;;;;14.05;8.70;;;24.50;75.20;;;;;;5027816;28;20100;-48
2023/06/21 12:04:48;;;;;;;11.15;8.00;;;24.50;75.10;;;;;;5035193;28;20041;-51
2023/06/21 12:07:15;;;;;;;12.27;8.20;;;24.50;75.10;;;;;;5043277;28;20029;-48
2023/06/21 12:09:48;;;;;;;13.70;8.75;;;24.50;75.00;;;;;;5042376;28;20017;-50
2023/06/21 12:12:14;;;;;;;11.10;8.57;;;24.50;74.80;;;;;;5039809;28;20064;-50
2023/06/21 12:14:40;;;;;;;12.23;8.82;;;24.50;74.80;;;;;;5036419;28;20049;-51
2023/06/21 12:17:06;;;;;;;11.13;8.00;;;24.50;74.90;;;;;;5043145;28;20035;-52
2023/06/21 12:19:33;;;;;;;12.52;7.75;;;24.40;74.70;;;;;;5042158;28;20052;-49
2023/06/21 12:22:00;;;;;;;13.63;8.75;;;24.50;74.70;;;;;;5022032;28;20069;-50
2023/06/21 12:24:27;;;;;;;17.75;8.55;;;24.50;75.90;;;;;;5022742;28;20044;-56
2023/06/21 12:26:56;;;;;;;18.70;7.90;;;24.50;75.40;;;;;;5040346;28;20025;-50
2023/06/21 12:29:23;;;;;;;12.35;8.63;;;24.50;75.30;;;;;;5036583;28;20014;-54
2023/06/21 12:31:49;;;;;;;10.68;8.43;;;24.50;75.50;;;;;;5041163;28;20140;-51
2023/06/21 12:34:16;;;;;;;15.05;8.93;;;24.50;74.50;;;;;;5042430;28;20144;-54
2023/06/21 12:36:45;;;;;;;16.15;9.68;;;24.50;74.90;;;;;;5023787;28;20017;-54